createdAt,value
2022-08-11T00:00:01.527Z,100598.78
2022-08-11T00:02:35.892Z,100601.47
2022-08-11T00:05:09.507Z,100594.41
2022-08-11T00:07:46.003Z,100595.31
2022-08-11T00:10:17.804Z,100600.59
2022-08-11T00:12:54.417Z,100603.28
2022-08-11T00:15:23.832Z,100599.75
2022-08-11T00:17:59.012Z,100590.94
2022-08-11T00:20:32.620Z,100595.34
2022-08-11T00:23:07.697Z,100598.03
2022-08-11T00:25:41.705Z,100595.38
2022-08-11T00:28:29.402Z,100596.28
2022-08-11T00:31:04.756Z,100589.22
2022-08-11T00:33:44.540Z,100598.03
2022-08-11T00:36:22.052Z,100599.84
2022-08-11T00:38:55.272Z,100602.44
2022-08-11T00:41:34.598Z,100602.47
2022-08-11T00:44:30.187Z,100591.84
2022-08-11T00:47:18.871Z,100605.13
2022-08-11T00:50:02.727Z,100606.03
2022-08-11T00:53:23.555Z,100609.56
2022-08-11T00:56:52.995Z,100612.22
2022-08-11T01:00:03.781Z,100606.06
2022-08-11T01:03:20.601Z,100607.84
2022-08-11T01:06:39.586Z,100604.28
2022-08-11T01:09:37.219Z,100611.34
2022-08-11T01:12:47.107Z,100595.47
2022-08-11T01:16:02.551Z,100603.44
2022-08-11T01:19:21.784Z,100605.16
2022-08-11T01:22:35.519Z,100598.09
2022-08-11T01:26:11.398Z,100607.78
2022-08-11T01:29:27.466Z,100606.94
2022-08-11T01:32:56.868Z,100599.88
2022-08-11T01:36:18.826Z,100611.34
2022-08-11T01:39:34.475Z,100604.28
2022-08-11T01:42:47.829Z,100599.88
2022-08-11T01:45:32.205Z,100600.75
2022-08-11T01:48:06.300Z,100602.53
2022-08-11T01:50:54.846Z,100606.94
2022-08-11T01:53:36.075Z,100598.09
2022-08-11T01:56:21.897Z,100599.84
2022-08-11T01:59:01.814Z,100609.59
2022-08-11T02:01:45.692Z,100605.16
2022-08-11T02:04:26.412Z,100609.56
2022-08-11T02:07:08.730Z,100612.22
2022-08-11T02:09:57.003Z,100613.09
2022-08-11T02:12:49.931Z,100610.44
2022-08-11T02:15:34.506Z,100618.38
2022-08-11T02:18:12.577Z,100607.78
2022-08-11T02:21:04.577Z,100609.53
2022-08-11T02:24:06.290Z,100613.03
2022-08-11T02:26:43.249Z,100615.69
2022-08-11T02:29:20.738Z,100613.91
2022-08-11T02:32:30.648Z,100611.25
2022-08-11T02:35:18.976Z,100608.59
2022-08-11T02:38:02.269Z,100610.38
2022-08-11T02:40:47.040Z,100604.19
2022-08-11T02:43:36.873Z,100605.94
2022-08-11T02:46:23.392Z,100603.28
2022-08-11T02:49:18.007Z,100601.50
2022-08-11T02:52:05.163Z,100613.84
2022-08-11T02:54:40.798Z,100614.75
2022-08-11T02:57:19.263Z,100611.22
2022-08-11T02:59:54.975Z,100604.16
2022-08-11T03:02:47.038Z,100609.44
2022-08-11T03:05:39.986Z,100604.16
2022-08-11T03:08:27.000Z,100605.00
2022-08-11T03:11:26.195Z,100612.06
2022-08-11T03:14:28.557Z,100612.94
2022-08-11T03:17:07.697Z,100616.44
2022-08-11T03:19:53.302Z,100610.28
2022-08-11T03:22:28.315Z,100612.91
2022-08-11T03:25:04.755Z,100615.56
2022-08-11T03:27:44.646Z,100612.88
2022-08-11T03:30:19.447Z,100604.06
2022-08-11T03:33:27.286Z,100602.25
2022-08-11T03:36:12.080Z,100607.56
2022-08-11T03:39:02.804Z,100612.81
2022-08-11T03:42:03.542Z,100609.31
2022-08-11T03:44:51.685Z,100612.78
2022-08-11T03:47:36.449Z,100601.34
2022-08-11T03:50:24.872Z,100603.09
2022-08-11T03:53:11.707Z,100603.97
2022-08-11T03:56:29.323Z,100605.72
2022-08-11T03:59:39.559Z,100598.66
2022-08-11T04:02:39.340Z,100602.16
2022-08-11T04:05:54.238Z,100606.56
2022-08-11T04:09:02.561Z,100613.56
2022-08-11T04:12:14.656Z,100606.53
2022-08-11T04:16:00.846Z,100610.91
2022-08-11T04:19:40.001Z,100610.00
2022-08-11T04:24:36.542Z,100612.63
2022-08-11T04:26:37.957Z,100609.97
2022-08-11T04:29:36.023Z,100608.22
2022-08-11T04:32:30.069Z,100602.94
2022-08-11T04:35:20.588Z,100607.31
2022-08-11T04:38:34.790Z,100609.94
2022-08-11T04:42:31.027Z,100596.69
2022-08-11T04:45:52.743Z,100603.69
2022-08-11T04:48:57.550Z,100608.97
2022-08-11T04:52:35.799Z,100608.09
2022-08-11T04:55:50.971Z,100608.06
2022-08-11T04:58:44.471Z,100611.56
2022-08-11T05:01:42.273Z,100616.00
2022-08-11T05:04:57.824Z,100615.97
2022-08-11T05:08:15.297Z,100622.09
2022-08-11T05:10:59.676Z,100616.84
2022-08-11T05:13:52.530Z,100611.53
2022-08-11T05:16:45.641Z,100618.56
2022-08-11T05:19:36.760Z,100613.28
2022-08-11T05:22:27.892Z,100626.50
2022-08-11T05:26:45.430Z,100629.13
2022-08-11T05:28:30.687Z,100622.97
2022-08-11T05:31:23.288Z,100627.38
2022-08-11T05:34:11.798Z,100623.84
2022-08-11T05:36:49.860Z,100638.81
2022-08-11T05:39:42.601Z,100633.50
2022-08-11T05:42:30.720Z,100635.25
2022-08-11T05:45:23.269Z,100629.97
2022-08-11T05:48:14.116Z,100627.34
2022-08-11T05:51:02.609Z,100629.09
2022-08-11T05:54:07.023Z,100625.59
2022-08-11T05:56:58.296Z,100629.13
2022-08-11T05:59:28.689Z,100627.38
2022-08-11T06:02:03.593Z,100626.50
2022-08-11T06:04:34.090Z,100632.69
2022-08-11T06:07:06.366Z,100627.41
2022-08-11T06:09:37.914Z,100631.81
2022-08-11T06:12:09.606Z,100626.53
2022-08-11T06:14:46.042Z,100632.69
2022-08-11T06:17:14.891Z,100631.84
2022-08-11T06:19:50.641Z,100636.25
2022-08-11T06:22:23.570Z,100635.38
2022-08-11T06:24:58.801Z,100633.63
2022-08-11T06:27:32.009Z,100633.63
2022-08-11T06:30:01.128Z,100626.59
2022-08-11T06:32:33.553Z,100618.69
2022-08-11T06:35:21.145Z,100616.94
2022-08-11T06:38:07.740Z,100616.06
2022-08-11T06:41:05.248Z,100611.66
2022-08-11T06:43:55.985Z,100619.59
2022-08-11T06:46:31.568Z,100618.72
2022-08-11T06:49:04.651Z,100617.84
2022-08-11T06:51:35.345Z,100624.91
2022-08-11T06:54:07.471Z,100614.47
2022-08-11T06:57:26.311Z,100621.47
2022-08-11T07:00:04.177Z,100619.66
2022-08-11T07:02:35.453Z,100626.72
2022-08-11T07:05:10.073Z,100622.31
2022-08-11T07:08:58.730Z,100618.75
2022-08-11T07:12:19.898Z,100629.34
2022-08-11T07:15:11.368Z,100623.22
2022-08-11T07:18:08.902Z,100624.06
2022-08-11T07:21:01.779Z,100619.69
2022-08-11T07:23:49.808Z,100617.97
2022-08-11T07:26:38.271Z,100618.84
2022-08-11T07:29:10.631Z,100625.00
2022-08-11T07:31:45.335Z,100625.94
2022-08-11T07:34:21.038Z,100625.94
2022-08-11T07:36:55.382Z,100624.22
2022-08-11T07:39:28.870Z,100608.34
2022-08-11T07:42:00.231Z,100620.69
2022-08-11T07:44:34.835Z,100622.44
2022-08-11T07:47:22.382Z,100624.19
2022-08-11T07:50:11.955Z,100614.53
2022-08-11T07:52:41.064Z,100612.78
2022-08-11T07:55:17.879Z,100614.53
2022-08-11T07:58:15.499Z,100610.16
2022-08-11T08:01:21.831Z,100611.06
2022-08-11T08:04:09.600Z,100605.78
2022-08-11T08:06:57.105Z,100612.84
2022-08-11T08:09:44.642Z,100615.56
2022-08-11T08:12:33.920Z,100612.94
2022-08-11T08:15:25.979Z,100609.44
2022-08-11T08:18:09.137Z,100619.16
2022-08-11T08:20:50.055Z,100611.22
2022-08-11T08:23:33.200Z,100617.44
2022-08-11T08:26:16.786Z,100617.47
2022-08-11T08:28:47.410Z,100613.97
2022-08-11T08:31:16.130Z,100614.88
2022-08-11T08:33:44.976Z,100606.94
2022-08-11T08:36:15.615Z,100615.75
2022-08-11T08:38:50.315Z,100622.78
2022-08-11T08:41:23.842Z,100618.38
2022-08-11T08:44:20.632Z,100615.72
2022-08-11T08:46:52.856Z,100618.41
2022-08-11T08:49:28.429Z,100615.78
2022-08-11T08:52:26.328Z,100621.06
2022-08-11T08:54:57.231Z,100608.69
2022-08-11T08:57:30.166Z,100607.75
2022-08-11T09:00:01.414Z,100609.53
2022-08-11T09:02:33.979Z,100614.81
2022-08-11T09:05:05.432Z,100614.84
2022-08-11T09:07:39.540Z,100602.41
2022-08-11T09:10:11.636Z,100608.56
2022-08-11T09:12:43.488Z,100601.47
2022-08-11T09:15:19.765Z,100597.91
2022-08-11T09:17:50.757Z,100603.19
2022-08-11T09:20:23.907Z,100587.25
2022-08-11T09:26:21.855Z,100594.28
2022-08-11T09:28:51.506Z,100604.00
2022-08-11T09:31:23.148Z,100601.31
2022-08-11T09:33:55.900Z,100603.94
2022-08-11T09:36:42.429Z,100597.69
2022-08-11T09:39:31.304Z,100598.50
2022-08-11T09:42:03.344Z,100594.94
2022-08-11T09:44:48.855Z,100594.94
2022-08-11T09:47:25.866Z,100591.34
2022-08-11T09:50:00.386Z,100591.25
2022-08-11T09:52:33.726Z,100591.22
2022-08-11T09:55:10.969Z,100594.69
2022-08-11T09:57:59.515Z,100584.03
2022-08-11T10:00:31.636Z,100578.66
2022-08-11T10:03:02.831Z,100574.19
2022-08-11T10:05:49.828Z,100575.03
2022-08-11T10:08:20.478Z,100577.66
2022-08-11T10:10:50.915Z,100574.91
2022-08-11T10:14:31.723Z,100579.25
2022-08-11T10:16:15.940Z,100561.44
2022-08-11T10:18:53.045Z,100561.34
2022-08-11T10:21:36.434Z,100559.50
2022-08-11T10:24:25.385Z,100564.75
2022-08-11T10:27:00.143Z,100558.53
2022-08-11T10:29:52.000Z,100562.00
2022-08-11T10:32:57.570Z,100558.41
2022-08-11T10:35:31.978Z,100552.19
2022-08-11T10:38:08.464Z,100548.59
2022-08-11T10:40:41.369Z,100544.94
2022-08-11T10:43:14.101Z,100536.00
2022-08-11T10:46:05.069Z,100544.72
2022-08-11T10:48:41.333Z,100535.84
2022-08-11T10:51:50.157Z,100541.16
2022-08-11T10:54:24.636Z,100537.59
2022-08-11T10:57:13.265Z,100541.13
2022-08-11T10:59:43.415Z,100533.13
2022-08-11T11:02:15.797Z,100532.16
2022-08-11T11:05:09.355Z,100532.97
2022-08-11T11:07:46.177Z,100532.81
2022-08-11T11:10:14.741Z,100516.81
2022-08-11T11:13:04.837Z,100521.97
2022-08-11T11:15:53.646Z,100513.88
2022-08-11T11:18:25.931Z,100504.94
2022-08-11T11:20:58.785Z,100496.97
2022-08-11T11:23:40.305Z,100499.53
2022-08-11T11:26:39.428Z,100502.13
2022-08-11T11:29:32.973Z,100495.81
2022-08-11T11:32:19.003Z,100501.94
2022-08-11T11:35:18.038Z,100497.47
2022-08-11T11:37:56.166Z,100480.50
2022-08-11T11:40:35.032Z,100490.97
2022-08-11T11:43:04.178Z,100483.78
2022-08-11T11:45:33.335Z,100472.19
2022-08-11T11:48:03.346Z,100481.91
2022-08-11T11:50:35.658Z,100476.50
2022-08-11T11:53:09.278Z,100473.72
2022-08-11T11:55:39.934Z,100471.03
2022-08-11T11:58:27.313Z,100463.91
2022-08-11T12:01:15.483Z,100463.91
2022-08-11T12:03:47.561Z,100462.97
2022-08-11T12:06:16.699Z,100454.03
2022-08-11T12:08:49.886Z,100453.03
2022-08-11T12:11:43.556Z,100456.50
2022-08-11T12:14:13.411Z,100449.38
2022-08-11T12:16:46.278Z,100450.16
2022-08-11T12:19:17.064Z,100435.06
2022-08-11T12:22:04.852Z,100437.69
2022-08-11T12:24:54.011Z,100447.31
2022-08-11T12:27:26.287Z,100434.78
2022-08-11T12:30:06.035Z,100434.59
2022-08-11T12:32:38.432Z,100426.53
2022-08-11T12:35:09.585Z,100433.47
2022-08-11T12:37:42.163Z,100425.41
2022-08-11T12:40:49.893Z,100434.25
2022-08-11T12:43:41.787Z,100415.53
2022-08-11T12:46:15.635Z,100426.97
2022-08-11T12:49:04.851Z,100418.03
2022-08-11T12:52:01.028Z,100411.72
2022-08-11T12:54:59.887Z,100410.69
2022-08-11T12:57:50.976Z,100413.13
2022-08-11T13:00:40.386Z,100402.31
2022-08-11T13:03:29.214Z,100403.16
2022-08-11T13:06:01.777Z,100401.31
2022-08-11T13:08:35.485Z,100401.13
2022-08-11T13:11:23.118Z,100392.06
2022-08-11T13:13:57.718Z,100388.38
2022-08-11T13:16:53.191Z,100383.84
2022-08-11T13:19:23.739Z,100381.91
2022-08-11T13:21:55.352Z,100381.88
2022-08-11T13:24:25.134Z,100377.19
2022-08-11T13:26:54.156Z,100376.97
2022-08-11T13:29:26.654Z,100374.16
2022-08-11T13:32:00.466Z,100382.03
2022-08-11T13:34:32.330Z,100384.66
2022-08-11T13:37:05.039Z,100368.53
2022-08-11T13:39:36.382Z,100375.47
2022-08-11T13:42:06.878Z,100372.69
2022-08-11T13:44:39.176Z,100370.91
2022-08-11T13:47:13.384Z,100368.25
2022-08-11T13:49:43.287Z,100360.25
2022-08-11T13:52:15.381Z,100368.19
2022-08-11T13:54:48.047Z,100357.56
2022-08-11T13:58:08.234Z,100366.47
2022-08-11T14:00:13.358Z,100358.44
2022-08-11T14:02:57.065Z,100353.09
2022-08-11T14:05:30.411Z,100347.63
2022-08-11T14:08:03.728Z,100361.78
2022-08-11T14:10:35.324Z,100345.75
2022-08-11T14:13:27.331Z,100348.44
2022-08-11T14:16:02.191Z,100346.69
2022-08-11T14:18:34.090Z,100350.16
2022-08-11T14:21:24.198Z,100351.00
2022-08-11T14:23:59.300Z,100339.44
2022-08-11T14:26:31.825Z,100345.63
2022-08-11T14:29:04.390Z,100339.25
2022-08-11T14:31:35.480Z,100341.03
2022-08-11T14:34:08.555Z,100339.22
2022-08-11T14:36:41.088Z,100340.03
2022-08-11T14:39:12.924Z,100338.22
2022-08-11T14:42:07.668Z,100336.44
2022-08-11T14:45:03.552Z,100336.53
2022-08-11T14:47:35.747Z,100333.84
2022-08-11T14:50:12.482Z,100334.63
2022-08-11T14:52:50.393Z,100329.16
2022-08-11T14:55:37.998Z,100329.97
2022-08-11T14:58:10.147Z,100324.66
2022-08-11T15:00:40.246Z,100327.34
2022-08-11T15:03:11.703Z,100322.84
2022-08-11T15:05:56.765Z,100315.72
2022-08-11T15:08:47.977Z,100314.13
2022-08-11T15:11:37.128Z,100313.28
2022-08-11T15:14:09.237Z,100314.16
2022-08-11T15:17:00.177Z,100317.59
2022-08-11T15:19:40.114Z,100312.34
2022-08-11T15:22:29.477Z,100315.94
2022-08-11T15:25:00.156Z,100304.47
2022-08-11T15:27:49.659Z,100302.72
2022-08-11T15:30:35.891Z,100301.06
2022-08-11T15:33:27.948Z,100299.38
2022-08-11T15:36:16.107Z,100299.50
2022-08-11T15:38:55.390Z,100304.91
2022-08-11T15:41:54.376Z,100293.41
2022-08-11T15:45:03.508Z,100286.38
2022-08-11T15:47:41.332Z,100294.47
2022-08-11T15:50:16.292Z,100282.00
2022-08-11T15:52:54.892Z,100281.25
2022-08-11T15:55:25.904Z,100283.88
2022-08-11T15:58:13.992Z,100278.53
2022-08-11T16:01:04.388Z,100273.34
2022-08-11T16:04:07.240Z,100277.13
2022-08-11T16:06:54.266Z,100279.03
2022-08-11T16:09:37.584Z,100284.38
2022-08-11T16:12:22.158Z,100267.50
2022-08-11T16:15:13.726Z,100264.94
2022-08-11T16:17:45.813Z,100267.69
2022-08-11T16:20:16.979Z,100267.66
2022-08-11T16:23:01.325Z,100260.56
2022-08-11T16:27:02.679Z,100260.66
2022-08-11T16:28:29.290Z,100260.75
2022-08-11T16:30:58.928Z,100254.59
2022-08-11T16:33:50.554Z,100261.72
2022-08-11T16:36:35.453Z,100261.75
2022-08-11T16:39:05.188Z,100265.41
2022-08-11T16:41:54.821Z,100260.94
2022-08-11T16:44:44.128Z,100258.28
2022-08-11T16:47:16.105Z,100252.91
2022-08-11T16:49:52.304Z,100253.75
2022-08-11T16:52:22.462Z,100247.50
2022-08-11T16:54:52.899Z,100250.19
2022-08-11T16:57:43.967Z,100255.53
2022-08-11T17:00:17.469Z,100248.47
2022-08-11T17:03:08.541Z,100246.63
2022-08-11T17:06:01.008Z,100252.06
2022-08-11T17:08:57.490Z,100244.13
2022-08-11T17:11:46.994Z,100245.97
2022-08-11T17:14:18.469Z,100244.25
2022-08-11T17:17:08.380Z,100248.72
2022-08-11T17:20:39.581Z,100250.47
2022-08-11T17:22:50.555Z,100248.78
2022-08-11T17:25:20.678Z,100238.97
2022-08-11T17:27:49.971Z,100238.97
2022-08-11T17:30:18.952Z,100236.31
2022-08-11T17:33:09.114Z,100234.47
2022-08-11T17:35:44.646Z,100236.47
2022-08-11T17:38:18.786Z,100232.03
2022-08-11T17:41:07.018Z,100231.19
2022-08-11T17:43:53.757Z,100233.03
2022-08-11T17:46:40.153Z,100241.13
2022-08-11T17:49:13.201Z,100232.38
2022-08-11T17:52:03.526Z,100237.72
2022-08-11T17:54:52.620Z,100230.72
2022-08-11T17:57:47.499Z,100230.88
2022-08-11T18:00:17.220Z,100227.41
2022-08-11T18:03:04.823Z,100244.34
2022-08-11T18:05:38.851Z,100236.38
2022-08-11T18:08:28.578Z,100239.97
2022-08-11T18:11:17.551Z,100241.81
2022-08-11T18:14:25.798Z,100246.31
2022-08-11T18:17:11.882Z,100244.66
2022-08-11T18:19:58.204Z,100243.81
2022-08-11T18:22:50.882Z,100243.81
2022-08-11T18:25:45.338Z,100254.56
2022-08-11T18:28:36.044Z,100246.69
2022-08-11T18:31:24.787Z,100254.69
2022-08-11T18:34:14.439Z,100256.47
2022-08-11T18:37:09.533Z,100247.63
2022-08-11T18:40:15.759Z,100254.81
2022-08-11T18:43:06.056Z,100259.31
2022-08-11T18:46:00.512Z,100254.91
2022-08-11T18:48:55.797Z,100262.09
2022-08-11T18:51:44.247Z,100261.25
2022-08-11T18:54:32.528Z,100262.16
2022-08-11T18:57:22.829Z,100260.38
2022-08-11T19:00:10.850Z,100262.25
2022-08-11T19:03:00.494Z,100263.16
2022-08-11T19:06:06.126Z,100266.81
2022-08-11T19:09:07.507Z,100276.66
2022-08-11T19:11:55.605Z,100274.91
2022-08-11T19:14:53.338Z,100282.97
2022-08-11T19:17:44.647Z,100283.03
2022-08-11T19:20:37.086Z,100289.28
2022-08-11T19:23:27.558Z,100291.09
2022-08-11T19:26:15.567Z,100288.50
2022-08-11T19:29:04.558Z,100291.22
2022-08-11T19:31:53.133Z,100284.19
2022-08-11T19:34:42.729Z,100295.78
2022-08-11T19:37:30.391Z,100294.97
2022-08-11T19:40:20.969Z,100296.78
2022-08-11T19:43:14.788Z,100294.22
2022-08-11T19:46:11.272Z,100302.25
2022-08-11T19:49:01.288Z,100301.38
2022-08-11T19:51:53.409Z,100304.16
2022-08-11T19:54:44.858Z,100308.63
2022-08-11T19:57:37.109Z,100311.34
2022-08-11T20:00:30.411Z,100308.75
2022-08-11T20:03:18.198Z,100306.16
2022-08-11T20:06:07.181Z,100305.31
2022-08-11T20:08:58.607Z,100304.50
2022-08-11T20:11:47.268Z,100305.44
2022-08-11T20:14:35.618Z,100310.84
2022-08-11T20:17:23.171Z,100303.84
2022-08-11T20:20:12.256Z,100310.13
2022-08-11T20:23:01.200Z,100308.47
2022-08-11T20:25:51.298Z,100312.94
2022-08-11T20:28:38.824Z,100313.03
2022-08-11T20:31:37.118Z,100313.94
2022-08-11T20:34:26.145Z,100311.34
2022-08-11T20:37:13.715Z,100311.41
2022-08-11T20:40:03.386Z,100309.69
2022-08-11T20:42:52.357Z,100311.47
2022-08-11T20:45:47.277Z,100315.97
2022-08-11T20:48:45.622Z,100315.13
2022-08-11T20:51:38.610Z,100311.66
2022-08-11T20:54:38.222Z,100325.00
2022-08-11T20:57:35.500Z,100318.00
2022-08-11T21:00:39.926Z,100321.63
2022-08-11T21:03:35.407Z,100316.34
2022-08-11T21:06:26.348Z,100319.94
2022-08-11T21:09:24.999Z,100322.66
2022-08-11T21:12:13.693Z,100320.94
2022-08-11T21:15:04.885Z,100321.88
2022-08-11T21:18:00.261Z,100314.84
2022-08-11T21:20:56.028Z,100322.84
2022-08-11T21:23:44.217Z,100320.25
2022-08-11T21:26:32.611Z,100318.50
2022-08-11T21:29:19.623Z,100314.09
2022-08-11T21:32:08.074Z,100312.34
2022-08-11T21:34:55.341Z,100318.63
2022-08-11T21:37:42.160Z,100315.13
2022-08-11T21:40:29.951Z,100316.03
2022-08-11T21:43:18.396Z,100309.91
2022-08-11T21:46:05.944Z,100315.22
2022-08-11T21:48:55.015Z,100313.53
2022-08-11T21:51:41.542Z,100313.56
2022-08-11T21:54:31.366Z,100318.94
2022-08-11T21:57:17.989Z,100314.53
2022-08-11T22:00:11.249Z,100314.59
2022-08-11T22:02:58.633Z,100309.31
2022-08-11T22:05:49.798Z,100320.00
2022-08-11T22:08:36.143Z,100316.50
2022-08-11T22:11:32.095Z,100318.31
2022-08-11T22:14:19.323Z,100319.22
2022-08-11T22:17:05.335Z,100323.69
2022-08-11T22:19:53.409Z,100319.25
2022-08-11T22:22:52.314Z,100314.00
2022-08-11T22:25:51.649Z,100310.44
2022-08-11T22:28:44.583Z,100311.41
2022-08-11T22:31:31.093Z,100307.88
2022-08-11T22:34:17.036Z,100307.03
2022-08-11T22:37:07.034Z,100308.00
2022-08-11T22:40:02.234Z,100310.69
2022-08-11T22:42:49.329Z,100309.81
2022-08-11T22:45:35.454Z,100314.28
2022-08-11T22:48:24.093Z,100317.84
2022-08-11T22:51:11.173Z,100312.56
2022-08-11T22:53:59.462Z,100310.84
2022-08-11T22:56:49.043Z,100314.41
2022-08-11T22:59:37.267Z,100315.34
2022-08-11T23:02:25.239Z,100319.81
2022-08-11T23:05:12.188Z,100318.09
2022-08-11T23:07:59.636Z,100315.44
2022-08-11T23:10:46.321Z,100318.16
2022-08-11T23:13:34.229Z,100315.53
2022-08-11T23:16:20.752Z,100312.03
2022-08-11T23:19:08.732Z,100323.53
2022-08-11T23:21:56.619Z,100314.72
2022-08-11T23:24:44.448Z,100314.75
2022-08-11T23:27:32.561Z,100315.66
2022-08-11T23:30:20.371Z,100313.03
2022-08-11T23:33:14.114Z,100309.50
2022-08-11T23:36:05.394Z,100306.91
2022-08-11T23:38:52.142Z,100300.75
2022-08-11T23:41:38.579Z,100305.22
2022-08-11T23:44:26.643Z,100302.56
2022-08-11T23:47:19.253Z,100297.31
2022-08-11T23:50:06.857Z,100296.44
2022-08-11T23:52:54.326Z,100290.31
2022-08-11T23:55:40.801Z,100289.44
2022-08-11T23:58:26.662Z,100298.34
